Time;durP1;ratioP1;P1;durP2;ratioP2;P2;SDS_P1;SDS_P2;PMS_P1;PMS_P2;Temp;Humidity;BMP_temperature;BMP_pressure;BME280_temperature;BME280_humidity;BME280_pressure;Samples;Min_cycle;Max_cycle;Signal;HPM_P1;HPM_P2
2022/09/03 00:03:23;;;;;;;5.47;2.75;;;;;;;16.39;65.28;100558.53;18432355;32;20088;-57
2022/09/03 00:13:29;;;;;;;8.57;2.90;;;;;;;16.33;65.80;100559.53;18431256;32;20420;-56
2022/09/03 00:23:36;;;;;;;7.12;2.65;;;;;;;16.10;66.26;100567.97;18430534;32;20089;-57
2022/09/03 00:33:40;;;;;;;4.85;2.50;;;;;;;16.14;64.98;100560.88;18430528;32;20084;-57
2022/09/03 00:44:01;;;;;;;8.80;2.50;;;;;;;16.02;65.23;100559.37;18430099;32;20089;-57
2022/09/03 00:54:10;;;;;;;5.82;2.62;;;;;;;16.05;65.10;100559.31;18429598;32;20499;-57
2022/09/03 01:04:29;;;;;;;8.23;2.87;;;;;;;15.55;66.86;100565.56;18429317;32;20172;-56
2022/09/03 01:14:40;;;;;;;7.87;2.75;;;;;;;15.42;66.91;100564.09;18429127;32;20120;-56
2022/09/03 01:25:07;;;;;;;5.65;2.58;;;;;;;15.51;66.04;100574.44;18427849;32;20400;-56
2022/09/03 01:35:19;;;;;;;8.35;2.47;;;;;;;15.61;65.23;100583.88;18428423;32;20103;-56
2022/09/03 01:45:40;;;;;;;7.53;2.90;;;;;;;15.39;65.81;100588.69;18427766;32;20369;-56
2022/09/03 01:56:05;;;;;;;6.93;2.80;;;;;;;15.10;66.77;100595.38;18427277;32;20096;-56
2022/09/03 02:06:09;;;;;;;6.07;2.87;;;;;;;15.04;66.71;100601.59;18426909;32;20467;-56
2022/09/03 02:16:15;;;;;;;5.40;2.37;;;;;;;14.91;66.39;100607.97;18426071;32;20100;-56
2022/09/03 02:26:21;;;;;;;5.50;2.47;;;;;;;15.06;65.86;100606.84;18425748;32;20085;-56
2022/09/03 02:36:28;;;;;;;5.12;2.20;;;;;;;14.85;65.83;100601.06;18426651;32;20733;-56
2022/09/03 02:46:34;;;;;;;4.93;2.60;;;;;;;14.63;67.22;100611.88;18433472;32;20361;-56
2022/09/03 02:56:39;;;;;;;7.35;2.40;;;;;;;14.70;66.45;100604.75;18433058;32;20097;-56
2022/09/03 03:06:42;;;;;;;6.05;2.60;;;;;;;14.50;67.17;100616.44;18432628;32;20107;-56
2022/09/03 03:16:51;;;;;;;5.87;2.58;;;;;;;14.75;65.85;100616.09;18432783;32;20119;-56
2022/09/03 03:26:56;;;;;;;4.95;2.37;;;;;;;14.66;65.78;100603.09;18432012;32;20088;-57
2022/09/03 03:37:01;;;;;;;8.18;2.87;;;;;;;14.54;66.26;100612.91;18432094;32;20112;-56
2022/09/03 03:47:05;;;;;;;8.32;2.95;;;;;;;14.17;67.08;100625.69;18431539;32;20102;-56
2022/09/03 03:57:09;;;;;;;5.75;3.10;;;;;;;14.41;66.27;100622.72;18431076;32;20111;-56
2022/09/03 04:07:14;;;;;;;5.72;2.55;;;;;;;14.45;66.02;100628.78;18431889;32;20096;-56
2022/09/03 04:17:18;;;;;;;6.30;2.87;;;;;;;14.14;67.61;100629.22;18416216;32;20097;-56
2022/09/03 04:27:27;;;;;;;7.15;2.75;;;;;;;14.01;67.64;100652.16;18454772;32;20365;-56
2022/09/03 04:37:32;;;;;;;4.55;2.30;;;;;;;14.26;66.33;100650.06;18495542;32;20102;-56
2022/09/03 04:47:36;;;;;;;6.00;2.72;;;;;;;14.29;66.44;100649.16;18494241;32;20118;-56
2022/09/03 04:57:41;;;;;;;7.70;2.80;;;;;;;14.40;66.30;100657.75;18493273;32;20581;-56
2022/09/03 05:07:45;;;;;;;7.40;2.70;;;;;;;14.68;66.87;100666.97;18493772;32;20097;-56
2022/09/03 05:17:51;;;;;;;6.65;2.97;;;;;;;14.88;67.12;100677.22;18493457;32;20380;-56
2022/09/03 05:27:54;;;;;;;8.95;2.72;;;;;;;15.39;67.11;100665.84;18493192;32;20437;-56
2022/09/03 05:38:00;;;;;;;7.18;2.50;;;;;;;15.81;67.27;100672.09;18452770;32;20109;-56
2022/09/03 05:48:03;;;;;;;3.90;2.25;;;;;;;16.42;66.25;100669.12;18437708;32;20425;-56
2022/09/03 05:58:08;;;;;;;7.50;2.50;;;;;;;17.64;62.29;100666.16;18449296;32;20535;-56
2022/09/03 06:08:11;;;;;;;7.97;2.60;;;;;;;19.50;55.85;100668.38;18443958;32;20097;-57
2022/09/03 06:18:16;;;;;;;5.75;2.42;;;;;;;20.87;51.72;100654.47;18410765;32;20111;-56
2022/09/03 06:28:19;;;;;;;7.00;2.35;;;;;;;21.97;49.22;100644.41;18370446;32;20414;-56
2022/09/03 06:38:32;;;;;;;5.12;2.20;;;;;;;22.82;47.22;100655.47;18478719;32;20085;-56
2022/09/03 06:48:36;;;;;;;6.87;2.55;;;;;;;23.19;46.50;100657.22;18460888;32;20116;-57
2022/09/03 06:58:42;;;;;;;5.95;2.40;;;;;;;23.83;44.11;100646.81;18433764;32;20161;-56
2022/09/03 07:08:46;;;;;;;5.82;2.53;;;;;;;23.22;45.57;100649.06;18433068;32;20111;-57
2022/09/03 07:18:51;;;;;;;4.78;2.20;;;;;;;24.10;43.89;100638.28;18432402;32;20115;-57
2022/09/03 07:28:55;;;;;;;6.00;2.30;;;;;;;23.71;45.01;100637.66;18431829;32;20134;-57
2022/09/03 07:39:00;;;;;;;4.78;1.83;;;;;;;24.33;44.74;100638.78;18431977;32;20430;-57
2022/09/03 07:49:05;;;;;;;5.65;2.00;;;;;;;24.08;46.31;100637.50;18432606;32;20226;-56
2022/09/03 07:59:10;;;;;;;6.47;2.30;;;;;;;23.54;46.13;100635.91;18429158;32;20092;-57
2022/09/03 08:09:14;;;;;;;6.87;2.62;;;;;;;24.28;44.51;100632.84;18429237;32;20108;-56
2022/09/03 08:19:19;;;;;;;5.32;2.12;;;;;;;24.49;44.50;100634.31;18419442;32;20112;-56
2022/09/03 08:29:22;;;;;;;4.53;2.03;;;;;;;24.26;44.21;100632.94;18433782;32;20114;-57
2022/09/03 08:39:28;;;;;;;6.30;2.10;;;;;;;24.17;44.22;100628.97;18432608;32;20503;-57
2022/09/03 08:49:36;;;;;;;6.12;2.95;;;;;;;24.76;44.01;100619.44;18462821;32;20111;-57
2022/09/03 08:59:40;;;;;;;5.70;2.28;;;;;;;24.54;43.87;100626.03;18494243;32;20112;-57
2022/09/03 09:09:48;;;;;;;7.18;2.40;;;;;;;24.97;42.84;100612.03;18481195;32;20463;-57
2022/09/03 09:20:03;;;;;;;4.80;1.92;;;;;;;24.04;43.60;100609.25;18493565;32;20084;-57
2022/09/03 09:30:07;;;;;;;5.68;2.00;;;;;;;25.43;41.80;100603.00;18493915;32;20106;-57
2022/09/03 09:40:24;;;;;;;5.78;2.17;;;;;;;25.59;40.57;100602.09;18495523;32;20093;-57
2022/09/03 09:50:27;;;;;;;4.82;1.98;;;;;;;26.41;37.41;100599.56;18486870;32;20096;-57
2022/09/03 10:00:33;;;;;;;4.10;2.20;;;;;;;26.79;37.41;100597.94;18491338;32;20381;-57
2022/09/03 10:10:41;;;;;;;3.90;1.75;;;;;;;27.47;35.46;100586.25;18467215;32;20108;-57
2022/09/03 10:20:50;;;;;;;4.93;1.90;;;;;;;27.21;34.93;100579.06;18411749;32;20223;-57
2022/09/03 10:31:21;;;;;;;5.72;1.90;;;;;;;26.89;36.32;100587.50;18429601;32;20361;-57
2022/09/03 10:41:35;;;;;;;9.57;2.13;;;;;;;27.20;34.87;100585.38;18426316;32;20092;-57
2022/09/03 10:51:42;;;;;;;5.18;2.00;;;;;;;27.98;33.88;100575.44;18425906;32;20112;-57
2022/09/03 11:02:00;;;;;;;5.12;1.70;;;;;;;27.57;33.85;100576.63;18417099;32;20124;-57
2022/09/03 11:12:06;;;;;;;4.53;1.75;;;;;;;26.23;35.52;100569.53;18357606;32;20100;-57
2022/09/03 11:22:12;;;;;;;4.43;1.77;;;;;;;26.83;35.20;100555.75;18380375;32;20082;-57
2022/09/03 11:32:21;;;;;;;3.22;1.52;;;;;;;26.82;35.45;100549.56;18369869;32;20089;-57
2022/09/03 11:42:32;;;;;;;3.30;1.60;;;;;;;26.73;33.15;100555.53;18362441;32;20169;-57
2022/09/03 11:52:39;;;;;;;5.10;1.77;;;;;;;25.85;34.94;100554.16;18432932;32;20089;-57
2022/09/03 12:02:46;;;;;;;2.83;1.52;;;;;;;26.86;32.63;100552.88;18433968;32;20108;-57
2022/09/03 12:12:59;;;;;;;3.90;1.73;;;;;;;26.97;32.25;100550.34;18430329;32;20104;-57
2022/09/03 12:23:04;;;;;;;4.97;1.73;;;;;;;27.56;32.93;100548.94;18429500;32;20099;-57
2022/09/03 12:33:09;;;;;;;4.00;1.65;;;;;;;27.55;31.47;100554.41;18414527;32;20191;-57
2022/09/03 12:43:17;;;;;;;6.28;1.62;;;;;;;27.26;34.12;100542.09;18415768;32;20109;-57
2022/09/03 12:53:40;;;;;;;3.37;1.70;;;;;;;26.72;35.07;100546.63;18431848;32;20128;-57
2022/09/03 13:03:47;;;;;;;3.95;1.50;;;;;;;26.31;35.87;100529.75;18412185;32;20104;-57
2022/09/03 13:13:54;;;;;;;3.37;1.48;;;;;;;28.06;32.93;100523.88;18430379;32;20136;-57
2022/09/03 13:24:16;;;;;;;5.70;1.70;;;;;;;28.95;31.30;100522.63;18429894;32;20373;-57
2022/09/03 13:34:23;;;;;;;2.90;1.50;;;;;;;29.07;29.38;100515.44;18422941;32;20471;-58
2022/09/03 13:44:53;;;;;;;2.47;1.35;;;;;;;29.21;29.32;100517.91;18423989;32;20485;-58
2022/09/03 13:54:59;;;;;;;4.95;1.55;;;;;;;29.58;29.31;100507.87;18353426;32;20437;-57
2022/09/03 14:05:08;;;;;;;2.50;1.67;;;;;;;29.05;29.73;100515.56;18418285;32;20080;-57
2022/09/03 14:15:18;;;;;;;2.83;1.20;;;;;;;29.17;30.77;100500.31;18427622;32;20118;-57
2022/09/03 14:25:23;;;;;;;;;;;;;;;29.04;30.26;100500.41;18429042;32;20104;-57
2022/09/03 14:35:55;;;;;;;2.03;1.20;;;;;;;28.65;30.13;100497.16;18430564;32;20036;-58
2022/09/03 14:46:10;;;;;;;5.47;1.60;;;;;;;28.47;30.92;100494.09;18418743;32;20473;-57
2022/09/03 14:56:29;;;;;;;4.22;1.52;;;;;;;28.37;31.92;100485.88;18428645;32;20141;-58
2022/09/03 15:06:44;;;;;;;5.25;1.60;;;;;;;27.91;32.30;100484.81;18432466;32;20572;-57
2022/09/03 15:16:54;;;;;;;3.92;1.37;;;;;;;27.64;33.62;100485.88;18419164;32;20101;-57
2022/09/03 15:27:09;;;;;;;8.90;2.37;;;;;;;27.26;33.48;100493.00;18295355;32;20122;-57
2022/09/03 15:37:19;;;;;;;40.25;5.03;;;;;;;26.99;34.41;100497.53;18289720;32;20108;-57
2022/09/03 15:47:38;;;;;;;3.33;1.50;;;;;;;26.59;35.00;100493.06;18427576;32;20085;-57
2022/09/03 15:58:08;;;;;;;1.87;0.98;;;;;;;26.82;34.87;100479.06;18424904;32;20111;-57
2022/09/03 16:08:19;;;;;;;3.95;1.37;;;;;;;26.79;35.10;100492.69;18432087;32;20092;-57
2022/09/03 16:18:26;;;;;;;2.45;1.10;;;;;;;26.54;34.25;100502.38;18394941;32;20096;-56
2022/09/03 16:28:33;;;;;;;2.22;1.45;;;;;;;26.09;36.48;100494.66;18405580;32;20089;-57
2022/09/03 16:38:43;;;;;;;3.20;1.33;;;;;;;25.93;36.37;100492.13;18428326;32;20442;-56
2022/09/03 16:48:54;;;;;;;2.85;1.52;;;;;;;25.77;38.06;100503.81;18409426;32;20369;-57
2022/09/03 16:59:09;;;;;;;6.95;1.70;;;;;;;25.34;40.52;100502.94;18425435;32;20115;-57
2022/09/03 17:09:27;;;;;;;8.85;1.77;;;;;;;24.73;44.38;100503.03;18418836;32;20179;-57
2022/09/03 17:19:36;;;;;;;5.25;1.98;;;;;;;24.16;46.27;100515.25;18429879;32;20384;-57
2022/09/03 17:29:55;;;;;;;4.62;1.83;;;;;;;23.50;47.89;100523.31;18420281;32;20154;-57
2022/09/03 17:40:12;;;;;;;5.87;2.30;;;;;;;22.98;48.43;100538.44;18410029;32;20139;-57
2022/09/03 17:50:22;;;;;;;3.25;1.67;;;;;;;22.59;50.43;100547.53;18428769;32;20133;-57
2022/09/03 18:00:30;;;;;;;3.92;2.03;;;;;;;22.03;50.86;100556.41;18390333;32;20366;-57
2022/09/03 18:10:43;;;;;;;3.92;1.67;;;;;;;21.57;51.58;100564.69;18365343;32;20389;-57
2022/09/03 20:16:20;;;;;;;13.45;7.50;;;;;;;18.84;60.38;100656.47;18431701;32;20089;-55
2022/09/03 20:26:35;;;;;;;12.52;4.05;;;;;;;18.50;60.95;100669.91;18418250;32;20097;-55
2022/09/03 20:36:45;;;;;;;5.35;2.40;;;;;;;18.63;59.65;100671.22;18431763;32;20152;-55
2022/09/03 20:47:04;;;;;;;15.10;3.72;;;;;;;18.19;60.68;100670.81;18432882;32;20108;-55
2022/09/03 20:57:21;;;;;;;4.50;2.47;;;;;;;18.09;60.67;100683.44;18414949;32;20092;-56
2022/09/03 21:07:34;;;;;;;5.32;2.67;;;;;;;17.87;61.78;100695.44;18360879;32;20100;-55
2022/09/03 21:17:51;;;;;;;5.80;2.67;;;;;;;17.72;61.71;100714.34;18368909;32;20089;-55
2022/09/03 21:28:01;;;;;;;6.72;2.80;;;;;;;17.54;62.45;100713.91;18358888;32;20089;-56
2022/09/03 21:38:08;;;;;;;5.05;2.42;;;;;;;17.54;62.29;100718.34;18362937;32;20089;-55
2022/09/03 21:48:17;;;;;;;4.43;2.17;;;;;;;17.44;62.69;100731.78;18362918;32;20101;-56
2022/09/03 21:58:31;;;;;;;8.27;2.85;;;;;;;17.33;62.62;100729.41;18362556;32;20109;-55
2022/09/03 22:08:40;;;;;;;5.00;2.30;;;;;;;17.17;63.38;100735.97;18427003;32;20381;-55
2022/09/03 22:18:45;;;;;;;8.50;2.60;;;;;;;17.29;62.80;100740.94;18426662;32;20369;-56
2022/09/03 22:28:59;;;;;;;4.90;2.50;;;;;;;17.14;63.34;100741.31;18423203;32;164611;-55
2022/09/03 22:39:13;;;;;;;5.47;2.53;;;;;;;16.88;64.61;100750.66;18427664;32;20089;-55
2022/09/03 22:49:42;;;;;;;4.50;2.45;;;;;;;16.97;64.64;100739.91;18225096;32;20541;-56
2022/09/03 22:59:54;;;;;;;4.85;2.50;;;;;;;16.91;64.38;100740.06;18185495;32;20131;-55
2022/09/03 23:10:03;;;;;;;5.12;2.45;;;;;;;16.99;63.78;100743.41;18298098;32;20117;-55
2022/09/03 23:20:13;;;;;;;5.35;2.60;;;;;;;16.74;64.53;100746.59;18297712;32;20101;-55
2022/09/03 23:30:16;;;;;;;5.37;2.58;;;;;;;16.65;65.23;100759.97;18336775;32;20372;-55
2022/09/03 23:40:35;;;;;;;6.10;2.95;;;;;;;16.70;64.99;100751.97;18436243;32;20110;-55
2022/09/03 23:50:43;;;;;;;7.93;3.80;;;;;;;16.52;65.88;100769.91;18435627;32;20111;-55
